createdAt,value
2018-08-16T00:02:08.277Z,36.40
2018-08-16T00:04:35.880Z,36.50
2018-08-16T00:09:31.163Z,36.50
2018-08-16T00:11:58.794Z,36.50
2018-08-16T00:14:26.419Z,36.60
2018-08-16T00:16:54.057Z,36.50
2018-08-16T00:19:21.650Z,36.50
2018-08-16T00:21:49.262Z,36.60
2018-08-16T00:24:16.889Z,36.70
2018-08-16T00:26:44.678Z,36.90
2018-08-16T00:31:40.035Z,37.00
2018-08-16T00:34:07.702Z,37.10
2018-08-16T00:39:04.293Z,37.20
2018-08-16T00:41:31.877Z,37.30
2018-08-16T00:43:59.494Z,37.40
2018-08-16T00:48:54.747Z,37.10
2018-08-16T00:53:49.989Z,37.40
2018-08-16T00:58:45.226Z,37.50
2018-08-16T01:01:12.866Z,37.50
2018-08-16T01:03:40.448Z,37.50
2018-08-16T01:08:35.694Z,37.50
2018-08-16T01:11:03.343Z,37.50
2018-08-16T01:13:30.926Z,37.50
2018-08-16T01:18:26.221Z,37.40
2018-08-16T01:20:53.832Z,37.40
2018-08-16T01:25:49.104Z,37.50
2018-08-16T01:28:17.190Z,37.50
2018-08-16T01:35:40.134Z,37.80
2018-08-16T01:38:07.706Z,37.70
2018-08-16T01:43:02.994Z,37.60
2018-08-16T01:47:58.270Z,37.60
2018-08-16T01:50:25.889Z,37.60
2018-08-16T01:52:53.506Z,37.50
2018-08-16T01:55:21.119Z,37.50
2018-08-16T01:57:48.725Z,37.50
2018-08-16T02:00:16.837Z,37.50
2018-08-16T02:02:44.471Z,37.40
2018-08-16T02:07:39.723Z,37.40
2018-08-16T02:12:35.293Z,37.40
2018-08-16T02:15:03.433Z,37.40
2018-08-16T02:17:31.190Z,37.40
2018-08-16T02:19:58.885Z,37.30
2018-08-16T02:22:26.491Z,37.30
2018-08-16T02:24:54.138Z,37.30
2018-08-16T02:29:49.361Z,37.30
2018-08-16T02:32:16.967Z,37.30
2018-08-16T02:34:44.565Z,37.20
2018-08-16T02:39:39.789Z,37.30
2018-08-16T02:44:35.028Z,37.40
2018-08-16T02:47:02.650Z,37.30
2018-08-16T02:51:57.854Z,37.30
2018-08-16T02:54:25.498Z,37.20
2018-08-16T02:56:53.079Z,37.20
2018-08-16T02:59:20.676Z,37.20
2018-08-16T03:06:44.088Z,37.00
2018-08-16T03:11:39.327Z,37.10
2018-08-16T03:14:06.976Z,37.00
2018-08-16T03:16:34.627Z,37.10
2018-08-16T03:19:02.265Z,37.00
2018-08-16T03:21:29.919Z,36.90
2018-08-16T03:23:57.523Z,37.00
2018-08-16T03:26:25.167Z,36.80
2018-08-16T03:28:52.747Z,36.60
2018-08-16T03:31:20.411Z,36.60
2018-08-16T03:33:48.498Z,36.60
2018-08-16T03:36:16.113Z,36.30
2018-08-16T03:38:43.723Z,36.10
2018-08-16T03:41:11.310Z,36.00
2018-08-16T03:43:38.925Z,36.20
2018-08-16T03:51:02.581Z,36.20
2018-08-16T03:53:30.197Z,36.10
2018-08-16T03:55:57.801Z,36.00
2018-08-16T03:58:25.406Z,36.10
2018-08-16T04:00:53.074Z,36.10
2018-08-16T04:05:48.322Z,35.90
2018-08-16T04:08:15.965Z,35.80
2018-08-16T04:10:43.558Z,35.90
2018-08-16T04:13:11.486Z,35.90
2018-08-16T04:15:39.172Z,36.00
2018-08-16T04:20:34.918Z,36.00
2018-08-16T04:23:02.649Z,36.00
2018-08-16T04:25:30.294Z,36.00
2018-08-16T04:27:57.982Z,36.00
2018-08-16T04:30:25.716Z,36.00
2018-08-16T04:32:53.289Z,36.10
2018-08-16T04:35:20.957Z,36.20
2018-08-16T04:37:48.486Z,36.10
2018-08-16T04:40:16.157Z,36.00
2018-08-16T04:45:11.402Z,36.20
2018-08-16T04:50:09.921Z,35.70
2018-08-16T04:52:37.654Z,36.10
2018-08-16T04:55:05.965Z,36.10
2018-08-16T04:57:33.959Z,35.90
2018-08-16T05:00:01.534Z,36.00
2018-08-16T05:04:56.770Z,36.00
2018-08-16T05:07:24.400Z,36.00
2018-08-16T05:09:52.006Z,36.00
2018-08-16T05:12:19.615Z,36.10
2018-08-16T05:14:47.227Z,36.00
2018-08-16T05:17:14.846Z,36.40
2018-08-16T05:19:42.425Z,35.90
2018-08-16T05:22:10.040Z,35.70
2018-08-16T05:24:37.638Z,35.60
2018-08-16T05:27:05.926Z,35.60
2018-08-16T05:29:33.547Z,35.60
2018-08-16T05:32:01.186Z,35.50
2018-08-16T05:34:28.790Z,35.70
2018-08-16T05:36:56.405Z,35.70
2018-08-16T05:39:23.985Z,35.80
2018-08-16T05:41:51.594Z,35.90
2018-08-16T05:44:19.200Z,36.00
2018-08-16T05:46:46.797Z,36.10
2018-08-16T05:49:14.458Z,36.20
2018-08-16T05:54:09.706Z,36.20
2018-08-16T05:59:04.967Z,36.50
2018-08-16T06:01:32.614Z,36.50
2018-08-16T06:06:27.877Z,36.60
2018-08-16T06:08:55.498Z,36.80
2018-08-16T06:11:23.105Z,36.70
2018-08-16T06:13:50.698Z,36.90
2018-08-16T06:16:18.290Z,36.90
2018-08-16T06:21:13.570Z,36.90
2018-08-16T06:23:41.191Z,36.80
2018-08-16T06:26:08.817Z,37.20
2018-08-16T06:28:36.455Z,37.20
2018-08-16T06:31:04.116Z,37.40
2018-08-16T06:33:31.655Z,37.30
2018-08-16T06:35:59.257Z,37.40
2018-08-16T06:38:26.857Z,37.30
2018-08-16T06:40:54.470Z,37.30
2018-08-16T06:43:22.101Z,37.50
2018-08-16T06:45:49.742Z,37.60
2018-08-16T06:48:17.329Z,37.70
2018-08-16T06:50:44.944Z,37.70
2018-08-16T06:53:12.538Z,37.70
2018-08-16T06:55:40.120Z,37.80
2018-08-16T06:58:07.963Z,37.80
2018-08-16T07:00:35.556Z,37.50
2018-08-16T07:03:03.166Z,37.70
2018-08-16T07:05:30.778Z,37.90
2018-08-16T07:07:58.402Z,38.00
2018-08-16T07:10:26.153Z,38.00
2018-08-16T07:12:54.385Z,37.90
2018-08-16T07:15:22.026Z,37.70
2018-08-16T07:20:17.223Z,37.80
2018-08-16T07:22:44.801Z,37.90
2018-08-16T07:27:40.025Z,38.00
2018-08-16T07:30:09.203Z,38.10
2018-08-16T07:32:37.118Z,38.20
2018-08-16T07:35:05.555Z,38.10
2018-08-16T07:37:33.688Z,38.10
2018-08-16T07:40:01.320Z,38.10
2018-08-16T07:44:56.551Z,37.90
2018-08-16T07:49:52.063Z,38.00
2018-08-16T07:52:19.757Z,38.00
2018-08-16T07:54:47.415Z,38.10
2018-08-16T07:57:15.035Z,38.10
2018-08-16T07:59:42.681Z,38.30
2018-08-16T08:02:10.306Z,38.20
2018-08-16T08:04:37.954Z,38.20
2018-08-16T08:07:05.603Z,38.20
2018-08-16T08:09:33.321Z,38.30
2018-08-16T08:12:00.816Z,38.20
2018-08-16T08:14:28.439Z,38.50
2018-08-16T08:16:56.097Z,38.50
2018-08-16T08:19:23.759Z,38.50
2018-08-16T08:21:51.386Z,38.50
2018-08-16T08:24:18.983Z,38.40
2018-08-16T08:29:14.234Z,38.70
2018-08-16T08:31:42.272Z,38.60
2018-08-16T08:34:09.842Z,38.60
2018-08-16T08:36:54.711Z,38.50
2018-08-16T08:39:22.806Z,38.30
2018-08-16T08:41:50.415Z,38.20
2018-08-16T08:44:20.958Z,38.20
2018-08-16T08:46:49.674Z,37.90
2018-08-16T08:49:17.719Z,37.90
2018-08-16T08:54:37.427Z,37.70
2018-08-16T08:57:22.667Z,37.70
2018-08-16T08:59:50.283Z,37.70
2018-08-16T09:02:17.945Z,37.70
2018-08-16T09:04:45.617Z,37.60
2018-08-16T09:11:07.199Z,37.30
2018-08-16T09:13:53.496Z,36.90
2018-08-16T09:16:31.321Z,36.80
2018-08-16T09:18:59.082Z,36.40
2018-08-16T09:21:27.278Z,36.10
2018-08-16T09:23:54.952Z,36.20
2018-08-16T09:26:29.230Z,36.20
2018-08-16T09:28:56.904Z,36.30
2018-08-16T09:31:41.908Z,36.20
2018-08-16T09:34:20.642Z,36.80
2018-08-16T09:36:49.352Z,36.10
2018-08-16T09:39:17.064Z,35.90
2018-08-16T09:41:44.675Z,36.70
2018-08-16T09:44:12.327Z,35.70
2018-08-16T09:47:07.715Z,35.80
2018-08-16T09:49:38.330Z,35.70
2018-08-16T09:52:06.730Z,35.70
2018-08-16T09:54:34.391Z,35.50
2018-08-16T09:57:03.635Z,35.40
2018-08-16T09:59:31.231Z,35.40
2018-08-16T10:01:58.859Z,34.80
2018-08-16T10:04:26.789Z,34.70
2018-08-16T10:06:54.389Z,34.50
2018-08-16T10:09:25.135Z,34.40
2018-08-16T10:11:53.278Z,34.90
2018-08-16T10:14:21.189Z,33.90
2018-08-16T10:16:48.847Z,33.90
2018-08-16T10:19:16.455Z,33.90
2018-08-16T10:21:44.112Z,33.90
2018-08-16T10:24:11.943Z,34.40
2018-08-16T10:26:39.546Z,33.70
2018-08-16T10:29:07.688Z,34.00
2018-08-16T10:31:35.291Z,33.70
2018-08-16T10:34:02.915Z,33.50
2018-08-16T10:36:30.577Z,33.60
2018-08-16T10:38:58.178Z,33.60
2018-08-16T10:41:26.015Z,33.50
2018-08-16T10:43:53.617Z,33.40
2018-08-16T10:46:21.350Z,33.30
2018-08-16T10:48:48.957Z,33.10
2018-08-16T10:51:16.557Z,32.80
2018-08-16T10:53:44.201Z,32.80
2018-08-16T10:56:11.833Z,32.80
2018-08-16T10:58:39.481Z,32.70
2018-08-16T11:01:07.146Z,33.20
2018-08-16T11:03:34.755Z,32.50
2018-08-16T11:06:02.389Z,32.50
2018-08-16T11:08:30.012Z,32.40
2018-08-16T11:10:57.638Z,32.40
2018-08-16T11:13:25.273Z,32.20
2018-08-16T11:15:53.033Z,32.20
2018-08-16T11:18:20.662Z,32.10
2018-08-16T11:20:48.286Z,32.10
2018-08-16T11:23:16.033Z,32.00
2018-08-16T11:25:43.678Z,32.60
2018-08-16T11:28:11.353Z,32.70
2018-08-16T11:30:38.970Z,31.80
2018-08-16T11:33:07.531Z,31.80
2018-08-16T11:35:35.110Z,31.90
2018-08-16T11:38:02.765Z,31.90
2018-08-16T11:40:30.389Z,31.90
2018-08-16T11:42:57.994Z,32.00
2018-08-16T11:45:25.653Z,31.90
2018-08-16T11:47:53.231Z,31.90
2018-08-16T11:50:20.843Z,32.00
2018-08-16T11:52:48.437Z,31.80
2018-08-16T11:55:16.053Z,32.30
2018-08-16T11:57:43.745Z,31.50
2018-08-16T12:00:11.518Z,32.00
2018-08-16T12:02:39.099Z,31.20
2018-08-16T12:05:06.737Z,31.70
2018-08-16T12:07:34.313Z,31.40
2018-08-16T12:10:01.920Z,31.40
2018-08-16T12:12:29.490Z,32.00
2018-08-16T12:14:57.156Z,31.70
2018-08-16T12:17:24.795Z,31.10
2018-08-16T12:19:52.374Z,32.30
2018-08-16T12:22:19.949Z,31.00
2018-08-16T12:24:47.534Z,31.00
2018-08-16T12:27:16.035Z,31.60
2018-08-16T12:29:43.631Z,30.80
2018-08-16T12:32:11.258Z,30.60
2018-08-16T12:34:38.885Z,30.70
2018-08-16T12:37:06.521Z,30.70
2018-08-16T12:39:34.107Z,31.30
2018-08-16T12:42:01.675Z,30.60
2018-08-16T12:44:29.278Z,31.20
2018-08-16T12:46:56.871Z,30.50
2018-08-16T12:49:24.463Z,30.50
2018-08-16T12:51:52.067Z,30.10
2018-08-16T12:54:20.743Z,30.20
2018-08-16T12:56:48.341Z,30.00
2018-08-16T12:59:16.021Z,30.40
2018-08-16T13:01:43.631Z,30.00
2018-08-16T13:04:11.187Z,30.00
2018-08-16T13:06:38.772Z,30.10
2018-08-16T13:09:08.298Z,30.70
2018-08-16T13:14:04.032Z,30.00
2018-08-16T13:16:31.637Z,30.00
2018-08-16T13:18:59.227Z,30.70
2018-08-16T13:21:26.815Z,29.80
2018-08-16T13:23:54.394Z,29.80
2018-08-16T13:26:22.016Z,29.70
2018-08-16T13:28:49.613Z,29.60
2018-08-16T13:31:17.307Z,30.00
2018-08-16T13:33:44.805Z,29.50
2018-08-16T13:36:12.395Z,28.80
2018-08-16T13:38:40.000Z,28.70
2018-08-16T13:41:07.630Z,29.20
2018-08-16T13:43:35.235Z,28.80
2018-08-16T13:46:02.817Z,28.90
2018-08-16T13:48:30.614Z,29.10
2018-08-16T13:50:58.147Z,27.90
2018-08-16T13:53:25.751Z,28.10
2018-08-16T13:55:53.370Z,27.90
2018-08-16T13:58:20.944Z,27.90
2018-08-16T14:00:48.521Z,27.40
2018-08-16T14:03:16.111Z,27.10
2018-08-16T14:05:43.702Z,27.60
2018-08-16T14:08:11.274Z,27.20
2018-08-16T14:13:06.544Z,26.90
2018-08-16T14:15:34.139Z,26.90
2018-08-16T14:18:01.754Z,26.90
2018-08-16T14:20:29.409Z,26.80
2018-08-16T14:25:24.603Z,26.60
2018-08-16T14:27:52.178Z,26.40
2018-08-16T14:30:19.767Z,26.30
2018-08-16T14:32:47.347Z,26.80
2018-08-16T14:35:14.935Z,26.60
2018-08-16T14:37:42.727Z,26.60
2018-08-16T14:40:10.325Z,26.90
2018-08-16T14:42:37.906Z,26.50
2018-08-16T14:45:06.554Z,26.40
2018-08-16T14:47:34.170Z,26.10
2018-08-16T14:50:01.795Z,26.00
2018-08-16T14:52:29.413Z,26.20
2018-08-16T14:54:57.018Z,26.40
2018-08-16T14:59:52.266Z,26.10
2018-08-16T15:02:19.890Z,25.90
2018-08-16T15:07:15.069Z,26.20
2018-08-16T15:09:42.663Z,26.00
2018-08-16T15:12:10.266Z,25.90
2018-08-16T15:14:37.827Z,25.90
2018-08-16T15:17:05.425Z,26.10
2018-08-16T15:19:33.015Z,26.20
2018-08-16T15:22:00.594Z,25.90
2018-08-16T15:24:28.162Z,25.80
2018-08-16T15:26:55.759Z,25.80
2018-08-16T15:29:23.443Z,26.40
2018-08-16T15:36:46.307Z,26.20
2018-08-16T15:39:13.903Z,26.10
2018-08-16T15:41:41.499Z,26.10
2018-08-16T15:44:09.721Z,26.00
2018-08-16T15:46:37.318Z,25.90
2018-08-16T15:49:04.955Z,25.60
2018-08-16T15:51:32.567Z,25.40
2018-08-16T15:54:00.498Z,25.50
2018-08-16T15:56:28.103Z,26.00
2018-08-16T15:58:55.743Z,26.20
2018-08-16T16:01:23.343Z,25.40
2018-08-16T16:03:52.127Z,25.50
2018-08-16T16:06:19.846Z,25.60
2018-08-16T16:08:47.405Z,25.70
2018-08-16T16:11:14.987Z,25.60
2018-08-16T16:13:42.597Z,25.70
2018-08-16T16:16:10.187Z,25.80
2018-08-16T16:21:05.512Z,25.80
2018-08-16T16:23:33.107Z,26.70
2018-08-16T16:26:00.878Z,26.20
2018-08-16T16:30:56.225Z,26.20
2018-08-16T16:33:23.820Z,26.40
2018-08-16T16:35:51.394Z,26.50
2018-08-16T16:38:19.103Z,27.00
2018-08-16T16:40:46.714Z,26.70
2018-08-16T16:43:14.753Z,26.80
2018-08-16T16:45:42.353Z,26.70
2018-08-16T16:48:09.945Z,26.70
2018-08-16T16:53:05.348Z,26.70
2018-08-16T16:55:32.912Z,26.70
2018-08-16T16:58:00.553Z,26.60
2018-08-16T17:00:28.175Z,26.60
2018-08-16T17:02:55.839Z,26.50
2018-08-16T17:05:23.486Z,26.50
2018-08-16T17:07:51.118Z,26.50
2018-08-16T17:10:18.752Z,27.00
2018-08-16T17:12:46.426Z,26.30
2018-08-16T17:15:14.066Z,27.10
2018-08-16T17:17:43.267Z,26.60
2018-08-16T17:20:12.196Z,26.50
2018-08-16T17:22:40.188Z,26.60
2018-08-16T17:25:07.812Z,26.60
2018-08-16T17:30:04.103Z,26.80
2018-08-16T17:32:31.670Z,27.00
2018-08-16T17:34:59.298Z,27.00
2018-08-16T17:37:26.926Z,27.10
2018-08-16T17:39:54.529Z,27.10
2018-08-16T17:42:22.200Z,27.30
2018-08-16T17:44:49.913Z,27.70
2018-08-16T17:47:17.514Z,27.50
2018-08-16T17:49:45.095Z,27.60
2018-08-16T17:52:12.799Z,28.10
2018-08-16T17:54:40.311Z,27.70
2018-08-16T17:57:07.911Z,28.20
2018-08-16T18:02:03.149Z,28.00
2018-08-16T18:04:30.721Z,28.10
2018-08-16T18:06:58.326Z,28.10
2018-08-16T18:09:25.914Z,28.10
2018-08-16T18:11:53.523Z,28.20
2018-08-16T18:14:21.200Z,28.40
2018-08-16T18:16:48.778Z,28.30
2018-08-16T18:19:16.369Z,28.60
2018-08-16T18:21:43.946Z,29.00
2018-08-16T18:24:11.598Z,28.70
2018-08-16T18:26:39.132Z,28.90
2018-08-16T18:29:06.734Z,28.90
2018-08-16T18:31:34.317Z,29.10
2018-08-16T18:34:01.882Z,29.70
2018-08-16T18:36:29.491Z,30.10
2018-08-16T18:38:57.077Z,31.20
2018-08-16T18:41:24.705Z,31.60
2018-08-16T18:43:52.293Z,31.60
2018-08-16T18:46:19.895Z,31.80
2018-08-16T18:48:47.514Z,32.50
2018-08-16T18:51:15.119Z,32.80
2018-08-16T18:53:42.809Z,32.20
2018-08-16T18:56:10.497Z,33.10
2018-08-16T18:58:38.103Z,33.30
2018-08-16T19:01:06.093Z,33.50
2018-08-16T19:06:02.036Z,33.60
2018-08-16T19:10:57.321Z,33.90
2018-08-16T19:13:24.996Z,34.50
2018-08-16T19:15:52.490Z,34.70
2018-08-16T19:18:20.101Z,34.80
2018-08-16T19:20:47.681Z,35.00
2018-08-16T19:23:15.283Z,35.00
2018-08-16T19:25:42.866Z,34.90
2018-08-16T19:28:10.462Z,35.40
2018-08-16T19:30:38.053Z,35.10
2018-08-16T19:33:05.913Z,35.20
2018-08-16T19:35:33.502Z,35.30
2018-08-16T19:38:01.085Z,35.00
2018-08-16T19:40:28.806Z,35.30
2018-08-16T19:42:56.412Z,35.60
2018-08-16T19:45:23.997Z,36.10
2018-08-16T19:47:51.717Z,35.80
2018-08-16T19:50:19.245Z,36.20
2018-08-16T19:52:46.857Z,36.70
2018-08-16T19:55:14.439Z,36.00
2018-08-16T19:57:42.006Z,36.40
2018-08-16T20:00:09.918Z,35.90
2018-08-16T20:02:37.603Z,36.40
2018-08-16T20:05:05.571Z,36.20
2018-08-16T20:10:00.997Z,36.40
2018-08-16T20:12:28.823Z,36.30
2018-08-16T20:14:56.470Z,36.60
2018-08-16T20:17:24.054Z,36.60
2018-08-16T20:22:20.082Z,36.60
2018-08-16T20:24:48.350Z,36.70
2018-08-16T20:27:16.125Z,36.70
2018-08-16T20:29:44.671Z,36.70
2018-08-16T20:32:12.412Z,36.50
2018-08-16T20:34:40.108Z,36.80
2018-08-16T20:37:07.815Z,36.50
2018-08-16T20:39:35.462Z,36.70
2018-08-16T20:42:03.187Z,36.80
2018-08-16T20:44:31.003Z,37.00
2018-08-16T20:46:58.615Z,36.90
2018-08-16T20:51:55.036Z,36.90
2018-08-16T20:54:22.617Z,37.60
2018-08-16T20:56:50.197Z,37.70
2018-08-16T20:59:17.955Z,37.70
2018-08-16T21:01:45.537Z,36.50
2018-08-16T21:04:13.121Z,36.90
2018-08-16T21:06:40.728Z,36.80
2018-08-16T21:09:09.405Z,37.00
2018-08-16T21:11:37.027Z,36.90
2018-08-16T21:14:04.789Z,36.90
2018-08-16T21:16:32.738Z,37.00
2018-08-16T21:19:00.382Z,37.10
2018-08-16T21:21:27.978Z,36.90
2018-08-16T21:23:55.594Z,37.00
2018-08-16T21:26:23.370Z,36.70
2018-08-16T21:28:50.973Z,36.50
2018-08-16T21:31:18.596Z,37.00
2018-08-16T21:33:46.211Z,37.00
2018-08-16T21:36:13.801Z,37.00
2018-08-16T21:38:41.603Z,36.90
2018-08-16T21:41:09.221Z,36.80
2018-08-16T21:48:32.182Z,37.00
2018-08-16T21:51:00.051Z,36.70
2018-08-16T21:53:27.686Z,36.60
2018-08-16T21:55:55.287Z,36.70
2018-08-16T21:58:22.902Z,36.60
2018-08-16T22:00:52.809Z,36.80
2018-08-16T22:03:21.660Z,36.60
2018-08-16T22:06:05.486Z,36.60
2018-08-16T22:08:49.118Z,37.40
2018-08-16T22:11:16.871Z,37.40
2018-08-16T22:13:44.473Z,36.80
2018-08-16T22:16:12.131Z,36.50
2018-08-16T22:18:39.765Z,36.70
2018-08-16T22:21:07.659Z,36.70
2018-08-16T22:23:35.406Z,36.80
2018-08-16T22:26:03.094Z,36.70
2018-08-16T22:28:30.672Z,36.90
2018-08-16T22:30:58.770Z,36.60
2018-08-16T22:33:26.602Z,36.50
2018-08-16T22:35:54.211Z,36.60
2018-08-16T22:38:21.837Z,36.80
2018-08-16T22:40:50.126Z,36.50
2018-08-16T22:45:45.394Z,36.60
2018-08-16T22:48:12.962Z,36.40
2018-08-16T22:50:40.582Z,36.10
2018-08-16T22:53:08.150Z,35.90
2018-08-16T22:55:35.747Z,35.80
2018-08-16T23:00:31.042Z,35.90
2018-08-16T23:02:58.660Z,35.90
2018-08-16T23:05:26.273Z,36.20
2018-08-16T23:07:53.865Z,36.20
2018-08-16T23:10:21.698Z,36.30
2018-08-16T23:15:17.079Z,36.10
2018-08-16T23:17:44.666Z,36.30
2018-08-16T23:20:12.237Z,36.20
2018-08-16T23:22:40.251Z,36.30
2018-08-16T23:25:08.230Z,36.30
2018-08-16T23:27:35.869Z,36.30
2018-08-16T23:30:06.284Z,36.20
2018-08-16T23:32:33.882Z,36.40
2018-08-16T23:35:01.472Z,36.50
2018-08-16T23:37:29.037Z,36.50
2018-08-16T23:39:56.638Z,36.50
2018-08-16T23:42:24.269Z,36.60
2018-08-16T23:44:51.857Z,36.50
2018-08-16T23:47:23.259Z,37.20
2018-08-16T23:49:51.029Z,37.30
2018-08-16T23:52:18.626Z,36.40
2018-08-16T23:57:13.908Z,36.60
2018-08-16T23:59:41.499Z,36.70
